createdAt,value
2022-12-31T00:01:51.111Z,4.66
2022-12-31T00:04:21.256Z,4.64
2022-12-31T00:06:51.541Z,4.64
2022-12-31T00:09:22.261Z,4.65
2022-12-31T00:11:52.849Z,4.66
2022-12-31T00:14:23.061Z,4.68
2022-12-31T00:16:53.691Z,4.68
2022-12-31T00:19:24.131Z,4.67
2022-12-31T00:21:54.092Z,4.67
2022-12-31T00:24:24.221Z,4.68
2022-12-31T00:26:54.285Z,4.66
2022-12-31T00:29:25.013Z,4.64
2022-12-31T00:31:55.091Z,4.63
2022-12-31T00:34:25.520Z,4.62
2022-12-31T00:36:56.017Z,4.61
2022-12-31T00:39:26.043Z,4.60
2022-12-31T00:41:56.689Z,4.59
2022-12-31T00:44:27.064Z,4.58
2022-12-31T00:46:57.228Z,4.58
2022-12-31T00:49:27.459Z,4.57
2022-12-31T00:52:01.041Z,4.56
2022-12-31T00:54:31.453Z,4.55
2022-12-31T00:57:01.783Z,4.55
2022-12-31T00:59:32.293Z,4.55
2022-12-31T01:02:02.832Z,4.55
2022-12-31T01:04:33.850Z,4.57
2022-12-31T01:07:03.990Z,4.59
2022-12-31T01:09:34.313Z,4.62
2022-12-31T01:12:05.374Z,4.63
2022-12-31T01:14:35.748Z,4.65
2022-12-31T01:17:05.844Z,4.68
2022-12-31T01:19:36.562Z,4.71
2022-12-31T01:22:06.876Z,4.73
2022-12-31T01:24:37.458Z,4.74
2022-12-31T01:27:08.389Z,4.76
2022-12-31T01:29:38.418Z,4.79
2022-12-31T01:32:08.697Z,4.82
2022-12-31T01:34:39.219Z,4.86
2022-12-31T01:37:09.850Z,4.89
2022-12-31T01:39:40.431Z,4.92
2022-12-31T01:42:12.105Z,4.96
2022-12-31T01:44:54.440Z,4.99
2022-12-31T01:47:35.182Z,5.00
2022-12-31T01:50:10.217Z,5.02
2022-12-31T01:52:44.114Z,5.03
2022-12-31T01:55:19.223Z,5.04
2022-12-31T01:57:52.459Z,5.06
2022-12-31T02:00:23.577Z,5.09
2022-12-31T02:02:55.008Z,5.13
2022-12-31T02:05:30.996Z,5.17
2022-12-31T02:08:01.486Z,5.20
2022-12-31T02:10:32.024Z,5.21
2022-12-31T02:13:03.002Z,5.22
2022-12-31T02:15:39.696Z,5.25
2022-12-31T02:18:20.643Z,5.25
2022-12-31T02:21:20.968Z,5.26
2022-12-31T02:24:10.783Z,5.27
2022-12-31T02:26:58.349Z,5.32
2022-12-31T02:29:59.102Z,5.40
2022-12-31T02:32:43.360Z,5.80
2022-12-31T02:35:16.910Z,5.54
2022-12-31T02:37:52.835Z,5.45
2022-12-31T02:40:24.247Z,5.45
2022-12-31T02:42:55.682Z,5.47
2022-12-31T02:45:31.825Z,5.48
2022-12-31T02:48:33.417Z,5.51
2022-12-31T02:51:18.936Z,5.53
2022-12-31T02:54:11.932Z,5.60
2022-12-31T02:56:52.143Z,5.66
2022-12-31T02:59:44.688Z,5.73
2022-12-31T03:02:19.277Z,5.80
2022-12-31T03:04:53.209Z,5.85
2022-12-31T03:07:25.391Z,5.88
2022-12-31T03:09:56.037Z,5.94
2022-12-31T03:12:47.696Z,5.97
2022-12-31T03:15:21.341Z,6.01
2022-12-31T03:18:00.575Z,6.05
2022-12-31T03:20:51.583Z,6.10
2022-12-31T03:23:26.577Z,6.14
2022-12-31T03:25:57.243Z,6.18
2022-12-31T03:28:29.560Z,6.21
2022-12-31T03:31:01.195Z,6.24
2022-12-31T03:33:33.779Z,6.27
2022-12-31T03:36:06.431Z,6.30
2022-12-31T03:38:36.905Z,6.33
2022-12-31T03:41:10.395Z,6.36
2022-12-31T03:43:40.839Z,6.38
2022-12-31T03:46:12.632Z,6.40
2022-12-31T03:48:43.066Z,6.43
2022-12-31T03:51:13.379Z,6.47
2022-12-31T03:53:43.599Z,6.52
2022-12-31T03:56:13.949Z,6.56
2022-12-31T03:58:44.108Z,6.59
2022-12-31T04:01:14.311Z,6.65
2022-12-31T04:03:44.831Z,6.71
2022-12-31T04:06:15.277Z,6.75
2022-12-31T04:08:45.770Z,6.80
2022-12-31T04:11:20.865Z,6.84
2022-12-31T04:13:51.763Z,6.90
2022-12-31T04:16:22.238Z,6.94
2022-12-31T04:18:52.073Z,6.97
2022-12-31T04:21:22.169Z,7.02
2022-12-31T04:23:52.747Z,7.08
2022-12-31T04:26:23.523Z,7.13
2022-12-31T04:28:53.617Z,7.18
2022-12-31T04:31:24.113Z,7.22
2022-12-31T04:33:54.426Z,7.25
2022-12-31T04:36:24.870Z,7.29
2022-12-31T04:38:55.862Z,7.31
2022-12-31T04:41:26.852Z,7.32
2022-12-31T04:43:58.967Z,7.32
2022-12-31T04:46:32.143Z,7.34
2022-12-31T04:49:02.645Z,7.36
2022-12-31T04:51:33.379Z,7.39
2022-12-31T04:54:03.845Z,7.42
2022-12-31T04:56:36.168Z,7.45
2022-12-31T04:59:08.472Z,7.46
2022-12-31T05:01:39.165Z,7.50
2022-12-31T05:04:09.731Z,7.54
2022-12-31T05:06:40.363Z,7.57
2022-12-31T05:09:10.662Z,7.62
2022-12-31T05:11:40.655Z,7.68
2022-12-31T05:14:10.914Z,7.73
2022-12-31T05:16:41.469Z,7.77
2022-12-31T05:19:11.519Z,7.82
2022-12-31T05:21:41.652Z,7.87
2022-12-31T05:24:12.080Z,7.90
2022-12-31T05:26:42.529Z,7.94
2022-12-31T05:29:12.703Z,7.96
2022-12-31T05:31:42.936Z,8.01
2022-12-31T05:34:13.351Z,8.02
2022-12-31T05:36:43.651Z,8.05
2022-12-31T05:39:13.841Z,8.09
2022-12-31T05:41:44.561Z,8.14
2022-12-31T05:44:15.162Z,8.18
2022-12-31T05:46:46.580Z,8.20
2022-12-31T05:49:16.736Z,8.23
2022-12-31T05:51:47.294Z,8.26
2022-12-31T05:54:17.312Z,8.32
2022-12-31T05:56:47.888Z,8.37
2022-12-31T05:59:18.223Z,8.41
2022-12-31T06:01:48.459Z,8.45
2022-12-31T06:04:18.925Z,8.48
2022-12-31T06:06:49.379Z,8.53
2022-12-31T06:09:20.200Z,8.56
2022-12-31T06:11:51.174Z,8.60
2022-12-31T06:14:22.207Z,8.64
2022-12-31T06:16:52.194Z,8.68
2022-12-31T06:19:22.610Z,8.70
2022-12-31T06:21:52.832Z,8.73
2022-12-31T06:24:23.240Z,8.74
2022-12-31T06:26:53.641Z,8.72
2022-12-31T06:29:24.061Z,8.71
2022-12-31T06:31:54.200Z,8.70
2022-12-31T06:34:24.753Z,8.72
2022-12-31T06:36:55.413Z,8.76
2022-12-31T06:39:26.028Z,8.77
2022-12-31T06:41:56.026Z,8.76
2022-12-31T06:44:26.350Z,8.77
2022-12-31T06:46:56.723Z,8.78
2022-12-31T06:49:27.139Z,8.80
2022-12-31T06:51:57.132Z,8.83
2022-12-31T06:54:27.311Z,8.88
2022-12-31T06:56:59.329Z,8.91
2022-12-31T06:59:31.278Z,8.95
2022-12-31T07:02:14.865Z,8.98
2022-12-31T07:05:16.876Z,8.99
2022-12-31T07:07:59.189Z,9.02
2022-12-31T07:10:41.901Z,9.07
2022-12-31T07:13:36.945Z,9.09
2022-12-31T07:16:27.667Z,9.13
2022-12-31T07:19:12.982Z,9.18
2022-12-31T07:21:44.442Z,9.23
2022-12-31T07:24:17.201Z,9.28
2022-12-31T07:27:07.833Z,9.32
2022-12-31T07:29:52.392Z,9.35
2022-12-31T07:32:36.877Z,9.37
2022-12-31T07:35:17.665Z,9.41
2022-12-31T07:37:56.207Z,9.44
2022-12-31T07:40:35.916Z,9.46
2022-12-31T07:43:13.715Z,9.49
2022-12-31T07:45:49.493Z,9.53
2022-12-31T07:48:25.510Z,9.59
2022-12-31T07:50:58.267Z,9.66
2022-12-31T07:53:30.226Z,9.73
2022-12-31T07:56:02.318Z,9.80
2022-12-31T07:58:48.281Z,9.88
2022-12-31T08:01:29.439Z,9.93
2022-12-31T08:04:06.413Z,9.99
2022-12-31T08:06:45.223Z,10.05
2022-12-31T08:09:22.780Z,10.08
2022-12-31T08:11:58.091Z,10.12
2022-12-31T08:14:31.182Z,10.17
2022-12-31T08:17:02.700Z,10.19
2022-12-31T08:19:34.818Z,10.20
2022-12-31T08:22:35.394Z,10.22
2022-12-31T08:25:17.480Z,10.21
2022-12-31T08:27:57.634Z,10.23
2022-12-31T08:30:37.043Z,10.27
2022-12-31T08:33:14.996Z,10.34
2022-12-31T08:35:59.393Z,10.39
2022-12-31T08:38:37.625Z,10.44
2022-12-31T08:41:23.796Z,10.47
2022-12-31T08:44:05.096Z,10.50
2022-12-31T08:46:46.918Z,10.52
2022-12-31T08:49:18.567Z,10.55
2022-12-31T08:51:50.417Z,10.60
2022-12-31T08:54:23.686Z,10.69
2022-12-31T08:57:12.674Z,10.79
2022-12-31T08:59:50.499Z,10.90
2022-12-31T09:02:47.858Z,11.00
2022-12-31T09:05:24.415Z,11.10
2022-12-31T09:08:04.672Z,11.19
2022-12-31T09:10:44.653Z,11.27
2022-12-31T09:13:22.073Z,11.35
2022-12-31T09:15:59.977Z,11.41
2022-12-31T09:18:34.688Z,11.45
2022-12-31T09:21:06.009Z,11.48
2022-12-31T09:23:37.658Z,11.48
2022-12-31T09:26:19.798Z,11.51
2022-12-31T09:29:02.013Z,11.56
2022-12-31T09:31:39.648Z,11.59
2022-12-31T09:34:22.340Z,11.61
2022-12-31T09:36:57.542Z,11.66
2022-12-31T09:39:36.739Z,11.71
2022-12-31T09:42:43.470Z,11.76
2022-12-31T09:45:42.638Z,11.81
2022-12-31T09:48:43.063Z,11.89
2022-12-31T09:51:28.550Z,11.99
2022-12-31T09:54:29.787Z,12.04
2022-12-31T09:57:23.546Z,12.10
2022-12-31T10:00:00.542Z,12.22
2022-12-31T10:02:48.508Z,12.30
2022-12-31T10:05:41.227Z,12.43
2022-12-31T10:08:29.702Z,12.51
2022-12-31T10:11:06.259Z,12.51
2022-12-31T10:13:51.740Z,12.50
2022-12-31T10:16:48.803Z,12.51
2022-12-31T10:19:48.126Z,12.61
2022-12-31T10:22:43.587Z,12.92
2022-12-31T10:25:48.143Z,13.10
2022-12-31T10:28:31.266Z,13.12
2022-12-31T10:31:14.427Z,13.11
2022-12-31T10:33:53.660Z,13.14
2022-12-31T10:36:32.622Z,13.16
2022-12-31T10:39:23.826Z,13.19
2022-12-31T10:42:26.437Z,13.26
2022-12-31T10:45:27.738Z,13.30
2022-12-31T10:48:38.762Z,13.26
2022-12-31T10:51:39.168Z,13.24
2022-12-31T10:54:51.128Z,13.20
2022-12-31T10:57:52.817Z,13.20
2022-12-31T11:00:24.079Z,13.24
2022-12-31T11:03:29.763Z,13.28
2022-12-31T11:06:31.890Z,13.35
2022-12-31T11:09:46.627Z,13.48
2022-12-31T11:12:47.515Z,13.58
2022-12-31T11:15:52.044Z,13.50
2022-12-31T11:18:39.178Z,13.48
2022-12-31T11:21:28.274Z,13.55
2022-12-31T11:24:10.860Z,13.57
2022-12-31T11:26:56.990Z,13.53
2022-12-31T11:29:39.344Z,13.47
2022-12-31T11:32:17.929Z,13.39
2022-12-31T11:34:57.185Z,13.34
2022-12-31T11:37:45.418Z,13.30
2022-12-31T11:40:33.020Z,13.30
2022-12-31T11:43:15.640Z,13.39
2022-12-31T11:46:16.190Z,13.58
2022-12-31T11:48:58.149Z,13.75
2022-12-31T11:51:50.205Z,13.82
2022-12-31T11:54:39.673Z,13.78
2022-12-31T11:57:19.108Z,13.75
2022-12-31T11:59:50.349Z,13.72
2022-12-31T12:02:27.737Z,13.69
2022-12-31T12:05:08.445Z,13.71
2022-12-31T12:07:41.581Z,13.76
2022-12-31T12:10:24.190Z,13.79
2022-12-31T12:12:56.133Z,13.83
2022-12-31T12:15:30.102Z,13.87
2022-12-31T12:18:07.129Z,13.97
2022-12-31T12:20:40.435Z,14.06
2022-12-31T12:23:23.851Z,14.09
2022-12-31T12:25:54.443Z,14.03
2022-12-31T12:28:26.386Z,13.96
2022-12-31T12:31:00.578Z,13.86
2022-12-31T12:33:41.922Z,13.60
2022-12-31T12:36:15.589Z,13.32
2022-12-31T12:38:46.125Z,13.19
2022-12-31T12:41:25.351Z,13.15
2022-12-31T12:44:06.403Z,13.18
2022-12-31T12:46:48.052Z,13.23
2022-12-31T12:49:24.531Z,13.26
2022-12-31T12:52:22.084Z,13.29
2022-12-31T12:55:09.381Z,13.32
2022-12-31T12:57:46.432Z,13.36
2022-12-31T13:00:22.543Z,13.38
2022-12-31T13:03:15.834Z,13.36
2022-12-31T13:06:02.892Z,13.34
2022-12-31T13:08:49.387Z,13.34
2022-12-31T13:11:33.030Z,13.33
2022-12-31T13:14:11.901Z,13.34
2022-12-31T13:16:47.454Z,13.37
2022-12-31T13:19:27.926Z,13.37
2022-12-31T13:22:05.188Z,13.38
2022-12-31T13:24:52.903Z,13.40
2022-12-31T13:27:27.860Z,13.40
2022-12-31T13:30:02.299Z,13.40
2022-12-31T13:32:39.262Z,13.42
2022-12-31T13:35:23.208Z,13.42
2022-12-31T13:38:03.376Z,13.41
2022-12-31T13:40:46.132Z,13.42
2022-12-31T13:43:24.057Z,13.41
2022-12-31T13:46:03.179Z,13.41
2022-12-31T13:48:39.872Z,13.44
2022-12-31T13:51:19.554Z,13.45
2022-12-31T13:53:57.702Z,13.46
2022-12-31T13:56:36.418Z,13.48
2022-12-31T13:59:19.689Z,13.50
2022-12-31T14:01:55.302Z,13.52
2022-12-31T14:04:30.823Z,13.53
2022-12-31T14:07:07.993Z,13.55
2022-12-31T14:09:38.559Z,13.56
2022-12-31T14:12:22.790Z,13.59
2022-12-31T14:15:03.472Z,13.62
2022-12-31T14:17:42.595Z,13.62
2022-12-31T14:20:24.887Z,13.64
2022-12-31T14:23:06.631Z,13.66
2022-12-31T14:25:41.664Z,13.68
2022-12-31T14:28:20.139Z,13.70
2022-12-31T14:30:57.180Z,13.73
2022-12-31T14:33:40.077Z,13.75
2022-12-31T14:36:33.842Z,13.77
2022-12-31T14:39:19.029Z,13.80
2022-12-31T14:42:04.275Z,13.83
2022-12-31T14:44:53.508Z,13.85
2022-12-31T14:47:33.872Z,13.88
2022-12-31T14:50:12.177Z,13.90
2022-12-31T14:52:52.901Z,13.93
2022-12-31T14:55:29.647Z,13.96
2022-12-31T14:58:27.723Z,13.96
2022-12-31T15:00:57.069Z,13.96
2022-12-31T15:03:40.009Z,13.99
2022-12-31T15:06:41.200Z,14.02
2022-12-31T15:09:34.772Z,14.03
2022-12-31T15:12:21.508Z,14.02
2022-12-31T15:15:22.797Z,14.03
2022-12-31T15:18:03.951Z,14.04
2022-12-31T15:20:50.138Z,14.03
2022-12-31T15:23:24.429Z,14.04
2022-12-31T15:26:00.967Z,14.04
2022-12-31T15:28:40.174Z,14.08
2022-12-31T15:31:19.642Z,14.11
2022-12-31T15:33:59.621Z,14.14
2022-12-31T15:36:31.374Z,14.14
2022-12-31T15:39:37.033Z,14.17
2022-12-31T15:42:38.133Z,14.20
2022-12-31T15:45:19.141Z,14.22
2022-12-31T15:47:54.141Z,14.23
2022-12-31T15:50:25.802Z,14.25
2022-12-31T15:52:58.199Z,14.27
2022-12-31T15:55:33.387Z,14.30
2022-12-31T15:58:06.391Z,14.33
2022-12-31T16:00:56.201Z,14.38
2022-12-31T16:03:28.115Z,14.40
2022-12-31T16:06:01.298Z,14.41
2022-12-31T16:08:34.541Z,14.43
2022-12-31T16:11:07.616Z,14.45
2022-12-31T16:13:42.162Z,14.46
2022-12-31T16:16:22.638Z,14.47
2022-12-31T16:18:53.689Z,14.49
2022-12-31T16:21:33.242Z,14.52
2022-12-31T16:24:05.458Z,14.58
2022-12-31T16:26:44.511Z,14.62
2022-12-31T16:29:17.092Z,14.66
2022-12-31T16:31:49.079Z,14.70
2022-12-31T16:34:22.185Z,14.73
2022-12-31T16:37:03.885Z,14.73
2022-12-31T16:39:36.507Z,14.71
2022-12-31T16:42:18.791Z,14.67
2022-12-31T16:44:49.898Z,14.65
2022-12-31T16:47:23.580Z,14.61
2022-12-31T16:50:00.329Z,14.57
2022-12-31T16:52:34.195Z,14.52
2022-12-31T16:55:09.694Z,14.48
2022-12-31T16:57:41.496Z,14.46
2022-12-31T17:00:18.548Z,14.45
2022-12-31T17:02:59.267Z,14.40
2022-12-31T17:05:30.328Z,14.39
2022-12-31T17:08:23.403Z,14.39
2022-12-31T17:10:56.009Z,14.41
2022-12-31T17:13:30.694Z,14.42
2022-12-31T17:16:02.574Z,14.47
2022-12-31T17:18:39.150Z,14.52
2022-12-31T17:21:11.331Z,14.56
2022-12-31T17:23:43.923Z,14.60
2022-12-31T17:26:15.780Z,14.61
2022-12-31T17:28:48.279Z,14.61
2022-12-31T17:31:30.756Z,14.61
2022-12-31T17:34:20.028Z,14.60
2022-12-31T17:37:16.064Z,14.59
2022-12-31T17:39:50.853Z,14.59
2022-12-31T17:42:28.751Z,14.56
2022-12-31T17:45:01.972Z,14.54
2022-12-31T17:47:40.552Z,14.51
2022-12-31T17:50:23.228Z,14.48
2022-12-31T17:52:56.495Z,14.48
2022-12-31T17:55:28.647Z,14.48
2022-12-31T17:58:02.914Z,14.45
2022-12-31T18:00:34.059Z,14.43
2022-12-31T18:03:04.608Z,14.42
2022-12-31T18:05:35.033Z,14.42
2022-12-31T18:08:06.330Z,14.46
2022-12-31T18:10:39.198Z,14.49
2022-12-31T18:13:17.861Z,14.56
2022-12-31T18:15:46.930Z,14.62
2022-12-31T18:18:25.300Z,14.65
2022-12-31T18:20:59.157Z,14.67
2022-12-31T18:23:31.597Z,14.72
2022-12-31T18:26:02.237Z,14.76
2022-12-31T18:28:32.409Z,14.79
2022-12-31T18:31:03.247Z,14.84
2022-12-31T18:33:33.455Z,14.91
2022-12-31T18:36:09.242Z,14.98
2022-12-31T18:38:40.445Z,15.04
2022-12-31T18:41:17.966Z,15.09
2022-12-31T18:43:49.102Z,15.16
2022-12-31T18:46:22.527Z,15.24
2022-12-31T18:48:52.939Z,15.30
2022-12-31T18:51:31.260Z,15.35
2022-12-31T18:54:04.233Z,15.37
2022-12-31T18:56:34.667Z,15.41
2022-12-31T18:59:05.160Z,15.44
2022-12-31T19:01:37.742Z,15.49
2022-12-31T19:04:13.611Z,15.53
2022-12-31T19:06:44.781Z,15.54
2022-12-31T19:09:43.434Z,15.55
2022-12-31T19:12:10.231Z,15.54
2022-12-31T19:14:40.458Z,15.54
2022-12-31T19:17:10.686Z,15.55
2022-12-31T19:19:40.838Z,15.56
2022-12-31T19:22:15.757Z,15.56
2022-12-31T19:24:46.239Z,15.54
2022-12-31T19:27:16.886Z,15.53
2022-12-31T19:29:46.928Z,15.55
2022-12-31T19:32:17.623Z,15.55
2022-12-31T19:34:47.653Z,15.55
2022-12-31T19:37:18.415Z,15.52
2022-12-31T19:39:48.837Z,15.45
2022-12-31T19:42:19.377Z,15.40
2022-12-31T19:44:49.813Z,15.36
2022-12-31T19:47:19.918Z,15.34
2022-12-31T19:49:49.933Z,15.32
2022-12-31T19:52:20.535Z,15.30
2022-12-31T19:54:51.426Z,15.26
2022-12-31T19:57:21.812Z,15.24
2022-12-31T19:59:52.129Z,15.24
2022-12-31T20:02:22.479Z,15.25
2022-12-31T20:04:52.943Z,15.24
2022-12-31T20:07:27.080Z,15.25
2022-12-31T20:09:58.181Z,15.25
2022-12-31T20:12:28.917Z,15.26
2022-12-31T20:14:59.294Z,15.26
2022-12-31T20:17:29.924Z,15.26
2022-12-31T20:20:00.101Z,15.25
2022-12-31T20:22:30.561Z,15.25
2022-12-31T20:25:00.584Z,15.25
2022-12-31T20:27:30.768Z,15.24
2022-12-31T20:30:00.879Z,15.22
2022-12-31T20:32:31.531Z,15.21
2022-12-31T20:35:03.558Z,15.22
2022-12-31T20:37:33.758Z,15.22
2022-12-31T20:40:05.148Z,15.22
2022-12-31T20:42:37.016Z,15.22
2022-12-31T20:45:10.759Z,15.22
2022-12-31T20:47:41.239Z,15.23
2022-12-31T20:50:12.675Z,15.24
2022-12-31T20:52:43.446Z,15.24
2022-12-31T20:55:14.061Z,15.25
2022-12-31T20:57:44.667Z,15.25
2022-12-31T21:00:16.540Z,15.24
2022-12-31T21:02:55.530Z,15.25
2022-12-31T21:05:29.217Z,15.25
2022-12-31T21:07:59.639Z,15.24
2022-12-31T21:10:30.072Z,15.23
2022-12-31T21:13:00.368Z,15.22
2022-12-31T21:15:30.788Z,15.21
2022-12-31T21:18:01.026Z,15.20
2022-12-31T21:20:31.303Z,15.20
2022-12-31T21:23:01.587Z,15.20
2022-12-31T21:25:31.565Z,15.19
2022-12-31T21:28:02.145Z,15.16
2022-12-31T21:30:32.694Z,15.15
2022-12-31T21:33:02.903Z,15.15
2022-12-31T21:35:43.741Z,15.14
2022-12-31T21:38:19.510Z,15.12
2022-12-31T21:40:50.000Z,15.10
2022-12-31T21:43:20.296Z,15.10
2022-12-31T21:46:01.857Z,15.09
2022-12-31T21:48:33.177Z,15.08
2022-12-31T21:51:09.686Z,15.05
2022-12-31T21:53:40.442Z,15.05
2022-12-31T21:56:14.046Z,15.03
2022-12-31T21:58:45.881Z,15.01
2022-12-31T22:01:40.169Z,15.00
2022-12-31T22:04:35.266Z,14.99
2022-12-31T22:07:01.527Z,14.99
2022-12-31T22:09:32.208Z,14.98
2022-12-31T22:12:02.728Z,14.97
2022-12-31T22:14:33.027Z,14.97
2022-12-31T22:17:03.323Z,14.96
2022-12-31T22:19:54.495Z,14.96
2022-12-31T22:22:24.365Z,14.96
2022-12-31T22:24:54.367Z,14.97
2022-12-31T22:27:28.216Z,14.96
2022-12-31T22:29:59.871Z,14.97
2022-12-31T22:32:33.387Z,14.99
2022-12-31T22:35:03.928Z,15.01
2022-12-31T22:37:56.441Z,15.02
2022-12-31T22:40:25.422Z,15.04
2022-12-31T22:42:56.349Z,15.04
2022-12-31T22:45:26.783Z,15.06
2022-12-31T22:47:57.648Z,15.08
2022-12-31T22:50:28.037Z,15.08
2022-12-31T22:52:57.951Z,15.08
2022-12-31T22:55:28.682Z,15.08
2022-12-31T22:57:58.765Z,15.08
2022-12-31T23:00:39.685Z,15.08
2022-12-31T23:03:10.209Z,15.10
2022-12-31T23:05:40.844Z,15.12
2022-12-31T23:08:20.516Z,15.12
2022-12-31T23:11:00.433Z,15.10
2022-12-31T23:13:57.923Z,15.09
2022-12-31T23:16:48.064Z,15.07
2022-12-31T23:19:36.518Z,15.05
2022-12-31T23:22:23.998Z,15.05
2022-12-31T23:24:54.613Z,15.02
2022-12-31T23:27:25.212Z,15.00
2022-12-31T23:29:55.482Z,15.01
2022-12-31T23:32:25.551Z,15.02
2022-12-31T23:34:55.451Z,15.04
2022-12-31T23:37:25.635Z,15.06
2022-12-31T23:39:55.664Z,15.07
2022-12-31T23:42:25.753Z,15.09
2022-12-31T23:44:55.965Z,15.09
2022-12-31T23:47:26.284Z,15.10
2022-12-31T23:49:56.444Z,15.10
2022-12-31T23:52:26.603Z,15.11
2022-12-31T23:54:56.760Z,15.11
2022-12-31T23:57:27.163Z,15.11
2022-12-31T23:59:57.272Z,15.11
